createdAt,value
2019-03-28T00:00:09.568Z,7.80
2019-03-28T00:02:43.861Z,7.80
2019-03-28T00:05:15.802Z,7.80
2019-03-28T00:07:47.622Z,7.80
2019-03-28T00:10:20.545Z,7.80
2019-03-28T00:12:52.578Z,7.80
2019-03-28T00:15:24.538Z,7.80
2019-03-28T00:17:56.473Z,7.70
2019-03-28T00:20:28.302Z,7.80
2019-03-28T00:23:17.040Z,7.70
2019-03-28T00:25:49.414Z,7.70
2019-03-28T00:28:21.355Z,7.60
2019-03-28T00:30:53.305Z,7.60
2019-03-28T00:33:26.162Z,7.50
2019-03-28T00:35:58.047Z,7.60
2019-03-28T00:38:30.005Z,7.70
2019-03-28T00:41:01.843Z,7.80
2019-03-28T00:43:33.824Z,7.80
2019-03-28T00:46:05.927Z,7.80
2019-03-28T00:48:37.871Z,7.80
2019-03-28T00:51:09.836Z,7.80
2019-03-28T00:53:41.885Z,7.70
2019-03-28T00:56:14.337Z,7.70
2019-03-28T00:58:46.530Z,7.80
2019-03-28T01:01:19.082Z,7.80
2019-03-28T01:03:51.577Z,7.70
2019-03-28T01:06:23.409Z,7.80
2019-03-28T01:08:55.509Z,7.80
2019-03-28T01:11:27.640Z,7.80
2019-03-28T01:13:59.654Z,7.80
2019-03-28T01:16:32.119Z,7.80
2019-03-28T01:19:04.147Z,7.70
2019-03-28T01:21:36.185Z,7.80
2019-03-28T01:24:08.524Z,7.80
2019-03-28T01:26:42.221Z,7.90
2019-03-28T01:29:14.412Z,7.80
2019-03-28T01:31:46.258Z,7.80
2019-03-28T01:34:18.630Z,7.90
2019-03-28T01:36:50.839Z,7.90
2019-03-28T01:39:22.814Z,7.80
2019-03-28T01:41:54.678Z,7.80
2019-03-28T01:44:26.554Z,7.80
2019-03-28T01:46:58.422Z,7.90
2019-03-28T01:49:30.320Z,7.80
2019-03-28T01:52:04.379Z,7.80
2019-03-28T01:54:36.247Z,7.80
2019-03-28T01:57:11.134Z,7.80
2019-03-28T01:59:41.499Z,7.70
2019-03-28T02:02:13.587Z,7.70
2019-03-28T02:04:46.619Z,7.70
2019-03-28T02:07:18.609Z,7.80
2019-03-28T02:09:50.542Z,7.70
2019-03-28T02:12:22.404Z,7.70
2019-03-28T02:14:54.279Z,7.60
2019-03-28T02:17:26.094Z,7.60
2019-03-28T02:19:58.014Z,7.60
2019-03-28T02:22:29.886Z,7.50
2019-03-28T02:25:01.852Z,7.60
2019-03-28T02:27:34.163Z,7.50
2019-03-28T02:30:10.063Z,7.40
2019-03-28T02:32:41.987Z,7.30
2019-03-28T02:35:13.914Z,7.40
2019-03-28T02:37:45.908Z,7.30
2019-03-28T02:40:17.983Z,7.50
2019-03-28T02:42:50.655Z,7.60
2019-03-28T02:45:23.108Z,7.60
2019-03-28T02:47:54.944Z,7.70
2019-03-28T02:50:26.790Z,7.60
2019-03-28T02:52:58.635Z,7.70
2019-03-28T02:55:30.580Z,7.70
2019-03-28T02:58:02.392Z,7.50
2019-03-28T03:00:34.214Z,7.50
2019-03-28T03:03:06.133Z,7.50
2019-03-28T03:05:38.136Z,7.50
2019-03-28T03:08:09.999Z,7.60
2019-03-28T03:10:41.859Z,7.60
2019-03-28T03:13:13.663Z,7.60
2019-03-28T03:15:45.642Z,7.60
2019-03-28T03:18:21.282Z,7.60
2019-03-28T03:20:51.025Z,7.60
2019-03-28T03:23:22.879Z,7.60
2019-03-28T03:25:54.886Z,7.60
2019-03-28T03:28:26.823Z,7.70
2019-03-28T03:30:58.632Z,7.70
2019-03-28T03:33:30.510Z,7.80
2019-03-28T03:36:02.417Z,7.70
2019-03-28T03:38:34.507Z,7.70
2019-03-28T03:41:06.556Z,7.70
2019-03-28T03:43:38.656Z,7.80
2019-03-28T03:46:10.844Z,7.60
2019-03-28T03:48:42.716Z,7.60
2019-03-28T03:51:14.714Z,7.70
2019-03-28T03:53:46.784Z,7.70
2019-03-28T03:56:18.585Z,7.60
2019-03-28T03:58:50.546Z,7.70
2019-03-28T04:01:22.488Z,7.60
2019-03-28T04:03:55.751Z,7.50
2019-03-28T04:06:27.828Z,7.60
2019-03-28T04:08:59.760Z,7.50
2019-03-28T04:11:33.551Z,7.70
2019-03-28T04:14:05.652Z,7.70
2019-03-28T04:16:37.594Z,7.50
2019-03-28T04:19:09.475Z,7.50
2019-03-28T04:21:41.293Z,7.40
2019-03-28T04:24:13.902Z,7.50
2019-03-28T04:26:46.285Z,7.50
2019-03-28T04:29:18.197Z,7.30
2019-03-28T04:31:50.600Z,7.30
2019-03-28T04:34:22.668Z,7.30
2019-03-28T04:36:56.378Z,7.30
2019-03-28T04:39:28.298Z,7.40
2019-03-28T04:42:00.156Z,7.50
2019-03-28T04:44:32.012Z,7.40
2019-03-28T04:47:04.034Z,7.30
2019-03-28T04:49:36.305Z,7.30
2019-03-28T04:52:08.230Z,7.20
2019-03-28T04:54:40.308Z,7.20
2019-03-28T04:57:12.231Z,7.00
2019-03-28T04:59:44.237Z,7.00
2019-03-28T05:02:16.407Z,6.90
2019-03-28T05:04:48.239Z,6.90
2019-03-28T05:07:20.515Z,7.10
2019-03-28T05:09:53.413Z,7.00
2019-03-28T05:12:25.583Z,6.90
2019-03-28T05:14:58.305Z,7.00
2019-03-28T05:17:31.764Z,7.10
2019-03-28T05:20:03.860Z,7.10
2019-03-28T05:22:36.774Z,7.20
2019-03-28T05:25:10.329Z,7.20
2019-03-28T05:27:42.482Z,7.20
2019-03-28T05:30:15.003Z,7.20
2019-03-28T05:32:47.060Z,7.20
2019-03-28T05:35:18.976Z,7.30
2019-03-28T05:37:50.981Z,7.40
2019-03-28T05:40:23.046Z,7.60
2019-03-28T05:42:54.967Z,7.70
2019-03-28T05:45:26.924Z,7.90
2019-03-28T05:48:00.448Z,8.00
2019-03-28T05:50:32.306Z,8.00
2019-03-28T05:53:05.687Z,8.10
2019-03-28T05:55:37.536Z,8.10
2019-03-28T05:58:09.849Z,8.20
2019-03-28T06:00:42.746Z,8.30
2019-03-28T06:03:14.725Z,8.40
2019-03-28T06:05:47.049Z,8.30
2019-03-28T06:08:18.936Z,8.20
2019-03-28T06:10:51.948Z,8.30
2019-03-28T06:13:23.818Z,8.30
2019-03-28T06:15:56.013Z,8.20
2019-03-28T06:18:27.871Z,8.30
2019-03-28T06:20:59.786Z,8.40
2019-03-28T06:23:31.696Z,8.20
2019-03-28T06:26:04.212Z,8.00
2019-03-28T06:28:36.989Z,8.10
2019-03-28T06:31:08.897Z,8.10
2019-03-28T06:33:40.754Z,8.50
2019-03-28T06:36:14.323Z,8.50
2019-03-28T06:38:46.298Z,8.50
2019-03-28T06:41:18.170Z,8.60
2019-03-28T06:43:50.996Z,8.90
2019-03-28T06:46:23.870Z,9.00
2019-03-28T06:48:55.777Z,9.00
2019-03-28T06:51:27.632Z,9.00
2019-03-28T06:53:59.606Z,8.90
2019-03-28T06:56:31.436Z,9.00
2019-03-28T06:59:03.283Z,8.90
2019-03-28T07:01:37.879Z,8.90
2019-03-28T07:04:09.838Z,9.00
2019-03-28T07:06:41.614Z,9.10
2019-03-28T07:09:13.498Z,9.00
2019-03-28T07:11:45.463Z,9.10
2019-03-28T07:14:17.865Z,9.30
2019-03-28T07:16:49.774Z,9.40
2019-03-28T07:19:22.036Z,9.40
2019-03-28T07:21:53.927Z,9.60
2019-03-28T07:24:25.784Z,9.70
2019-03-28T07:26:58.384Z,9.70
2019-03-28T07:29:31.276Z,9.60
2019-03-28T07:32:03.123Z,9.70
2019-03-28T07:34:35.507Z,9.70
2019-03-28T07:37:07.594Z,9.70
2019-03-28T07:39:39.759Z,9.80
2019-03-28T07:42:12.094Z,10.00
2019-03-28T07:44:44.181Z,10.10
2019-03-28T07:47:15.984Z,9.90
2019-03-28T07:49:47.866Z,9.90
2019-03-28T07:52:20.176Z,10.00
2019-03-28T07:54:52.181Z,9.90
2019-03-28T07:57:24.982Z,9.80
2019-03-28T08:00:03.966Z,9.90
2019-03-28T08:02:31.015Z,10.00
2019-03-28T08:05:02.917Z,10.00
2019-03-28T08:07:44.933Z,9.80
2019-03-28T08:10:08.871Z,9.40
2019-03-28T08:12:40.720Z,9.50
2019-03-28T08:15:14.717Z,9.40
2019-03-28T08:17:46.748Z,9.30
2019-03-28T08:20:18.880Z,9.20
2019-03-28T08:22:50.941Z,9.40
2019-03-28T08:25:23.217Z,9.60
2019-03-28T08:27:57.650Z,9.60
2019-03-28T08:30:39.980Z,9.50
2019-03-28T08:33:11.887Z,9.40
2019-03-28T08:35:43.913Z,9.40
2019-03-28T08:38:18.025Z,9.30
2019-03-28T08:40:51.580Z,9.60
2019-03-28T08:43:23.469Z,9.30
2019-03-28T08:45:55.355Z,9.20
2019-03-28T08:48:27.269Z,9.20
2019-03-28T08:50:59.081Z,9.20
2019-03-28T08:53:31.930Z,9.40
2019-03-28T08:56:03.908Z,9.50
2019-03-28T08:58:38.098Z,9.60
2019-03-28T09:01:09.764Z,9.80
2019-03-28T09:03:41.843Z,9.70
2019-03-28T09:06:16.902Z,9.70
2019-03-28T09:08:47.712Z,9.60
2019-03-28T09:11:21.500Z,9.50
2019-03-28T09:13:53.272Z,9.40
2019-03-28T09:16:26.217Z,9.20
2019-03-28T09:18:58.109Z,9.20
2019-03-28T09:21:29.965Z,9.40
2019-03-28T09:24:01.880Z,9.50
2019-03-28T09:26:33.765Z,9.40
2019-03-28T09:29:05.679Z,9.60
2019-03-28T09:31:37.646Z,9.60
2019-03-28T09:34:09.557Z,9.60
2019-03-28T09:36:41.502Z,9.70
2019-03-28T09:39:13.408Z,9.30
2019-03-28T09:41:45.712Z,9.50
2019-03-28T09:44:17.549Z,9.60
2019-03-28T09:46:49.449Z,9.50
2019-03-28T09:49:21.309Z,9.70
2019-03-28T09:51:53.253Z,9.90
2019-03-28T09:54:25.153Z,9.90
2019-03-28T09:56:57.114Z,9.60
2019-03-28T09:59:29.001Z,9.60
2019-03-28T10:02:01.974Z,9.40
2019-03-28T10:04:34.834Z,9.40
2019-03-28T10:07:07.305Z,9.20
2019-03-28T10:09:39.258Z,9.10
2019-03-28T10:12:11.462Z,9.10
2019-03-28T10:14:43.432Z,9.20
2019-03-28T10:17:16.103Z,9.30
2019-03-28T10:19:48.022Z,9.30
2019-03-28T10:22:22.324Z,9.30
2019-03-28T10:24:54.534Z,9.10
2019-03-28T10:27:27.280Z,9.00
2019-03-28T10:29:59.285Z,8.90
2019-03-28T10:32:32.392Z,8.70
2019-03-28T10:35:06.923Z,8.60
2019-03-28T10:37:37.968Z,8.60
2019-03-28T10:40:10.526Z,8.60
2019-03-28T10:42:43.445Z,8.60
2019-03-28T10:45:15.231Z,8.60
2019-03-28T10:47:48.284Z,8.70
2019-03-28T10:50:20.416Z,8.70
2019-03-28T10:52:53.092Z,8.60
2019-03-28T10:55:24.874Z,8.60
2019-03-28T10:57:56.856Z,8.50
2019-03-28T11:00:28.646Z,7.70
2019-03-28T11:03:00.919Z,7.50
2019-03-28T11:05:32.639Z,7.20
2019-03-28T11:08:04.705Z,7.20
2019-03-28T11:10:36.441Z,7.30
2019-03-28T11:13:09.719Z,7.50
2019-03-28T11:15:41.777Z,7.80
2019-03-28T11:18:13.796Z,7.80
2019-03-28T11:20:46.323Z,7.50
2019-03-28T11:23:18.179Z,7.50
2019-03-28T11:25:50.167Z,7.70
2019-03-28T11:28:23.488Z,7.80
2019-03-28T11:30:55.622Z,7.60
2019-03-28T11:33:27.450Z,7.20
2019-03-28T11:35:59.393Z,7.20
2019-03-28T11:38:31.889Z,7.20
2019-03-28T11:41:04.917Z,7.40
2019-03-28T11:43:36.753Z,7.60
2019-03-28T11:46:08.797Z,7.60
2019-03-28T11:48:40.761Z,7.50
2019-03-28T11:51:13.073Z,7.40
2019-03-28T11:53:45.068Z,7.50
2019-03-28T11:56:18.481Z,7.50
2019-03-28T11:58:50.617Z,7.50
2019-03-28T12:01:23.195Z,7.50
2019-03-28T12:03:55.233Z,7.60
2019-03-28T12:06:27.078Z,7.70
2019-03-28T12:08:58.914Z,7.80
2019-03-28T12:11:30.796Z,8.00
2019-03-28T12:14:02.651Z,7.90
2019-03-28T12:16:34.529Z,7.70
2019-03-28T12:19:06.459Z,7.80
2019-03-28T12:21:39.387Z,8.00
2019-03-28T12:24:11.650Z,8.10
2019-03-28T12:26:43.527Z,7.90
2019-03-28T12:29:15.410Z,8.00
2019-03-28T12:31:47.268Z,8.20
2019-03-28T12:34:19.129Z,8.40
2019-03-28T12:36:51.221Z,8.60
2019-03-28T12:39:23.091Z,8.90
2019-03-28T12:41:54.922Z,8.70
2019-03-28T12:44:26.793Z,8.70
2019-03-28T12:46:58.626Z,8.70
2019-03-28T12:49:30.586Z,8.70
2019-03-28T12:52:02.450Z,8.70
2019-03-28T12:54:34.408Z,8.20
2019-03-28T12:57:07.242Z,8.40
2019-03-28T12:59:40.622Z,8.30
2019-03-28T13:02:27.176Z,8.00
2019-03-28T13:04:47.157Z,8.30
2019-03-28T13:07:19.261Z,8.30
2019-03-28T13:09:51.701Z,8.20
2019-03-28T13:12:24.184Z,8.70
2019-03-28T13:14:56.042Z,8.90
2019-03-28T13:17:28.028Z,8.90
2019-03-28T13:20:00.590Z,8.90
2019-03-28T13:22:32.501Z,8.20
2019-03-28T13:25:04.721Z,8.20
2019-03-28T13:27:36.988Z,8.20
2019-03-28T13:30:09.753Z,8.00
2019-03-28T13:32:43.352Z,7.90
2019-03-28T13:35:15.502Z,8.20
2019-03-28T13:37:48.523Z,8.30
2019-03-28T13:40:20.712Z,8.10
2019-03-28T13:42:53.210Z,7.80
2019-03-28T13:45:25.756Z,7.90
2019-03-28T13:47:58.083Z,7.90
2019-03-28T13:50:31.535Z,7.90
2019-03-28T13:53:04.350Z,8.20
2019-03-28T13:55:37.506Z,8.50
2019-03-28T13:58:10.110Z,8.40
2019-03-28T14:00:42.268Z,8.60
2019-03-28T14:03:14.171Z,8.70
2019-03-28T14:05:46.243Z,8.50
2019-03-28T14:08:18.642Z,8.30
2019-03-28T14:10:50.754Z,8.20
2019-03-28T14:13:22.802Z,8.30
2019-03-28T14:15:54.680Z,8.20
2019-03-28T14:18:26.600Z,8.30
2019-03-28T14:20:58.856Z,8.30
2019-03-28T14:23:30.799Z,8.30
2019-03-28T14:26:02.946Z,8.00
2019-03-28T14:28:35.461Z,8.10
2019-03-28T14:31:07.869Z,8.20
2019-03-28T14:33:40.485Z,8.20
2019-03-28T14:36:12.865Z,8.30
2019-03-28T14:38:44.940Z,8.40
2019-03-28T14:41:17.536Z,8.20
2019-03-28T14:43:49.737Z,8.00
2019-03-28T14:46:21.742Z,8.10
2019-03-28T14:48:54.249Z,7.90
2019-03-28T14:51:26.243Z,8.00
2019-03-28T14:53:58.965Z,8.10
2019-03-28T14:56:30.911Z,7.70
2019-03-28T14:59:03.702Z,7.40
2019-03-28T15:01:36.152Z,7.50
2019-03-28T15:04:08.653Z,7.50
2019-03-28T15:06:40.649Z,7.50
2019-03-28T15:09:12.687Z,7.40
2019-03-28T15:11:44.761Z,7.60
2019-03-28T15:14:16.647Z,7.70
2019-03-28T15:16:48.782Z,7.90
2019-03-28T15:19:21.559Z,7.90
2019-03-28T15:21:53.747Z,7.80
2019-03-28T15:24:25.649Z,7.80
2019-03-28T15:26:57.682Z,7.90
2019-03-28T15:29:29.469Z,7.90
2019-03-28T15:32:03.249Z,7.90
2019-03-28T15:34:35.153Z,7.80
2019-03-28T15:37:07.659Z,7.70
2019-03-28T15:39:39.489Z,7.90
2019-03-28T15:42:11.466Z,8.00
2019-03-28T15:44:43.432Z,8.00
2019-03-28T15:47:15.944Z,8.00
2019-03-28T15:49:47.850Z,7.90
2019-03-28T15:52:21.195Z,7.60
2019-03-28T15:54:53.412Z,7.60
2019-03-28T15:57:25.402Z,7.50
2019-03-28T15:59:57.347Z,7.40
2019-03-28T16:02:29.311Z,7.60
2019-03-28T16:05:01.896Z,7.70
2019-03-28T16:07:33.993Z,7.70
2019-03-28T16:10:08.009Z,7.60
2019-03-28T16:12:40.809Z,7.50
2019-03-28T16:15:13.595Z,7.60
2019-03-28T16:17:47.634Z,7.50
2019-03-28T16:20:20.223Z,7.40
2019-03-28T16:22:53.208Z,7.30
2019-03-28T16:25:25.223Z,7.30
2019-03-28T16:27:57.138Z,7.30
2019-03-28T16:30:39.054Z,7.30
2019-03-28T16:33:11.012Z,7.40
2019-03-28T16:35:43.215Z,7.30
2019-03-28T16:38:15.076Z,7.30
2019-03-28T16:40:47.951Z,7.40
2019-03-28T16:43:21.245Z,7.30
2019-03-28T16:45:53.339Z,7.30
2019-03-28T16:48:25.343Z,7.30
2019-03-28T16:50:59.746Z,7.30
2019-03-28T16:53:31.665Z,7.30
2019-03-28T16:56:03.751Z,7.30
2019-03-28T16:58:36.662Z,7.20
2019-03-28T17:01:08.518Z,7.20
2019-03-28T17:03:41.560Z,7.20
2019-03-28T17:06:13.804Z,7.20
2019-03-28T17:08:48.141Z,7.20
2019-03-28T17:11:20.567Z,7.00
2019-03-28T17:13:52.510Z,7.00
2019-03-28T17:16:25.174Z,7.10
2019-03-28T17:18:57.154Z,7.20
2019-03-28T17:21:29.129Z,7.10
2019-03-28T17:24:01.243Z,7.10
2019-03-28T17:26:33.237Z,7.10
2019-03-28T17:29:05.508Z,7.00
2019-03-28T17:31:37.889Z,7.00
2019-03-28T17:34:09.766Z,7.00
2019-03-28T17:36:43.181Z,7.00
2019-03-28T17:39:15.748Z,7.00
2019-03-28T17:41:47.620Z,7.00
2019-03-28T17:44:19.677Z,7.00
2019-03-28T17:46:51.989Z,7.00
2019-03-28T17:49:23.955Z,6.80
2019-03-28T17:51:55.926Z,6.80
2019-03-28T17:54:28.623Z,6.90
2019-03-28T17:57:00.664Z,6.70
2019-03-28T17:59:32.445Z,6.80
2019-03-28T18:02:04.487Z,6.70
2019-03-28T18:04:47.459Z,6.70
2019-03-28T18:07:10.456Z,6.80
2019-03-28T18:09:42.634Z,6.90
2019-03-28T18:12:14.536Z,6.90
2019-03-28T18:14:47.237Z,6.90
2019-03-28T18:17:19.753Z,6.90
2019-03-28T18:19:52.472Z,7.00
2019-03-28T18:22:24.793Z,6.90
2019-03-28T18:24:57.009Z,6.90
2019-03-28T18:27:29.459Z,6.80
2019-03-28T18:30:01.325Z,6.80
2019-03-28T18:32:33.986Z,6.80
2019-03-28T18:35:08.083Z,6.60
2019-03-28T18:37:40.258Z,6.70
2019-03-28T18:40:12.198Z,6.70
2019-03-28T18:42:44.157Z,6.60
2019-03-28T18:45:16.264Z,6.60
2019-03-28T18:47:48.169Z,6.60
2019-03-28T18:50:20.281Z,6.60
2019-03-28T18:52:52.230Z,6.50
2019-03-28T18:55:24.113Z,6.60
2019-03-28T18:57:56.290Z,6.60
2019-03-28T19:00:28.630Z,6.70
2019-03-28T19:03:00.686Z,6.60
2019-03-28T19:05:32.806Z,6.60
2019-03-28T19:08:04.738Z,6.50
2019-03-28T19:10:37.731Z,6.50
2019-03-28T19:13:09.853Z,6.60
2019-03-28T19:15:41.889Z,6.60
2019-03-28T19:18:14.317Z,6.60
2019-03-28T19:20:46.315Z,6.60
2019-03-28T19:23:18.255Z,6.50
2019-03-28T19:25:50.848Z,6.60
2019-03-28T19:28:29.201Z,6.50
2019-03-28T19:30:58.391Z,6.50
2019-03-28T19:33:31.638Z,6.40
2019-03-28T19:36:05.222Z,6.50
2019-03-28T19:38:39.429Z,6.40
2019-03-28T19:41:11.480Z,6.40
2019-03-28T19:43:43.694Z,6.30
2019-03-28T19:46:15.940Z,6.30
2019-03-28T19:48:48.571Z,6.20
2019-03-28T19:51:21.410Z,6.20
2019-03-28T19:53:53.507Z,6.30
2019-03-28T19:56:26.026Z,6.20
2019-03-28T19:58:59.367Z,6.20
2019-03-28T20:01:31.617Z,6.20
2019-03-28T20:04:03.597Z,6.20
2019-03-28T20:06:36.656Z,6.30
2019-03-28T20:09:16.263Z,6.50
2019-03-28T20:11:43.005Z,6.60
2019-03-28T20:14:15.779Z,6.80
2019-03-28T20:16:48.355Z,7.10
2019-03-28T20:19:20.618Z,7.20
2019-03-28T20:21:52.648Z,7.40
2019-03-28T20:24:24.579Z,7.60
2019-03-28T20:26:56.647Z,7.70
2019-03-28T20:29:28.546Z,7.80
2019-03-28T20:32:02.245Z,7.90
2019-03-28T20:34:34.153Z,7.90
2019-03-28T20:37:06.085Z,8.00
2019-03-28T20:39:38.061Z,8.00
2019-03-28T20:42:09.943Z,8.00
2019-03-28T20:44:42.029Z,8.00
2019-03-28T20:47:14.060Z,8.10
2019-03-28T20:49:46.867Z,8.10
2019-03-28T20:52:19.916Z,8.10
2019-03-28T20:54:52.917Z,8.10
2019-03-28T20:57:25.227Z,8.10
2019-03-28T20:59:57.355Z,8.10
2019-03-28T21:02:29.266Z,8.10
2019-03-28T21:05:01.320Z,8.10
2019-03-28T21:07:33.326Z,8.10
2019-03-28T21:10:06.060Z,8.00
2019-03-28T21:12:37.886Z,8.00
2019-03-28T21:15:10.181Z,8.00
2019-03-28T21:17:43.319Z,8.00
2019-03-28T21:20:15.423Z,8.00
2019-03-28T21:22:47.561Z,8.00
2019-03-28T21:25:19.682Z,8.00
2019-03-28T21:27:52.019Z,7.90
2019-03-28T21:30:26.944Z,8.00
2019-03-28T21:32:58.309Z,8.00
2019-03-28T21:35:30.730Z,8.00
2019-03-28T21:38:03.309Z,8.00
2019-03-28T21:40:37.106Z,8.00
2019-03-28T21:43:09.481Z,8.10
2019-03-28T21:45:41.565Z,8.10
2019-03-28T21:48:13.693Z,8.20
2019-03-28T21:50:48.037Z,8.20
2019-03-28T21:53:21.635Z,8.20
2019-03-28T21:55:55.450Z,8.20
2019-03-28T21:58:27.718Z,8.10
2019-03-28T22:00:59.874Z,8.10
2019-03-28T22:03:31.872Z,8.10
2019-03-28T22:06:05.574Z,8.10
2019-03-28T22:08:37.664Z,8.00
2019-03-28T22:11:09.595Z,8.10
2019-03-28T22:13:41.572Z,8.00
2019-03-28T22:16:13.711Z,8.00
2019-03-28T22:18:46.091Z,8.00
2019-03-28T22:21:18.486Z,8.00
2019-03-28T22:23:51.260Z,8.00
2019-03-28T22:26:23.309Z,8.00
2019-03-28T22:28:55.295Z,8.00
2019-03-28T22:31:27.220Z,8.10
2019-03-28T22:33:59.195Z,8.00
2019-03-28T22:36:31.751Z,8.00
2019-03-28T22:39:05.643Z,8.00
2019-03-28T22:41:38.140Z,7.90
2019-03-28T22:44:10.093Z,8.00
2019-03-28T22:46:41.969Z,8.10
2019-03-28T22:49:13.946Z,8.10
2019-03-28T22:51:45.942Z,8.20
2019-03-28T22:54:17.778Z,8.20
2019-03-28T22:56:50.217Z,8.30
2019-03-28T22:59:22.030Z,8.30
2019-03-28T23:01:54.110Z,8.30
2019-03-28T23:04:26.390Z,8.40
2019-03-28T23:07:10.354Z,8.40
2019-03-28T23:09:33.796Z,8.40
2019-03-28T23:12:07.557Z,8.40
2019-03-28T23:14:42.195Z,8.30
2019-03-28T23:17:14.402Z,8.20
2019-03-28T23:19:46.544Z,8.20
2019-03-28T23:22:20.481Z,8.10
2019-03-28T23:24:54.628Z,8.20
2019-03-28T23:27:27.010Z,8.20
2019-03-28T23:29:59.361Z,8.20
2019-03-28T23:32:31.625Z,8.20
2019-03-28T23:35:03.937Z,8.10
2019-03-28T23:37:36.648Z,8.10
2019-03-28T23:40:09.036Z,8.10
2019-03-28T23:42:41.513Z,8.20
2019-03-28T23:45:15.756Z,8.20
2019-03-28T23:47:48.074Z,8.20
2019-03-28T23:50:20.939Z,8.20
2019-03-28T23:52:53.954Z,8.30
2019-03-28T23:55:26.942Z,8.30
2019-03-28T23:57:59.921Z,8.20
